Time;durP1;ratioP1;P1;durP2;ratioP2;P2;SDS_P1;SDS_P2;PMS_P1;PMS_P2;Temp;Humidity;BMP_temperature;BMP_pressure;BME280_temperature;BME280_humidity;BME280_pressure;Samples;Min_cycle;Max_cycle;Signal;HPM_P1;HPM_P2
2022/09/29 00:01:20;;;;;;;3.53;2.40;;;6.70;99.90;;;;;;6216200;23;20243;-39
2022/09/29 00:03:46;;;;;;;2.50;2.30;;;6.70;99.90;;;;;;6216468;23;20206;-38
2022/09/29 00:06:14;;;;;;;3.23;2.50;;;6.70;99.90;;;;;;6214052;23;20186;-39
2022/09/29 00:08:41;;;;;;;2.87;2.57;;;6.60;99.90;;;;;;6215941;23;20184;-42
2022/09/29 00:11:08;;;;;;;2.60;2.30;;;6.60;99.90;;;;;;6214112;23;20240;-39
2022/09/29 00:13:33;;;;;;;2.10;1.90;;;6.60;99.90;;;;;;6214203;23;20168;-38
2022/09/29 00:16:01;;;;;;;3.13;2.57;;;6.60;99.90;;;;;;6215906;23;20163;-40
2022/09/29 00:18:28;;;;;;;3.37;2.20;;;6.50;99.90;;;;;;6215578;23;20480;-39
2022/09/29 00:21:06;;;;;;;2.70;2.27;;;6.50;99.90;;;;;;6214085;23;20555;-39
2022/09/29 00:23:34;;;;;;;4.43;2.40;;;6.50;99.90;;;;;;6215586;23;20187;-40
2022/09/29 00:26:15;;;;;;;6.50;2.17;;;6.40;99.90;;;;;;6215476;23;20157;-37
2022/09/29 00:28:46;;;;;;;2.30;2.17;;;6.40;99.90;;;;;;6215877;23;20185;-39
2022/09/29 00:31:13;;;;;;;2.60;2.40;;;6.30;99.90;;;;;;6215506;23;20164;-37
2022/09/29 00:33:39;;;;;;;2.93;2.47;;;6.30;99.90;;;;;;6215501;23;20148;-41
2022/09/29 00:36:09;;;;;;;4.33;2.47;;;6.20;99.90;;;;;;6213897;23;20184;-41
2022/09/29 00:38:35;;;;;;;2.37;2.17;;;6.20;99.90;;;;;;6215758;23;20167;-40
2022/09/29 00:41:02;;;;;;;3.23;2.63;;;6.20;99.90;;;;;;6215484;23;20159;-36
2022/09/29 00:43:53;;;;;;;3.03;2.10;;;6.10;99.90;;;;;;6213971;23;20162;-40
2022/09/29 00:46:39;;;;;;;3.53;2.70;;;6.10;99.90;;;;;;6215695;23;20269;-42
2022/09/29 00:49:36;;;;;;;3.03;2.43;;;6.10;99.90;;;;;;6214975;23;20195;-38
2022/09/29 00:52:17;;;;;;;2.77;2.47;;;6.10;99.90;;;;;;6217560;23;20166;-42
2022/09/29 00:54:52;;;;;;;6.23;2.70;;;6.00;99.90;;;;;;6215834;23;20598;-40
2022/09/29 00:57:22;;;;;;;3.73;2.90;;;6.00;99.90;;;;;;6217397;23;20621;-40
2022/09/29 01:00:02;;;;;;;3.83;2.70;;;6.00;99.90;;;;;;6217461;23;20162;-40
2022/09/29 01:02:30;;;;;;;3.97;3.03;;;5.90;99.90;;;;;;6217885;23;20204;-40
2022/09/29 01:04:55;;;;;;;7.73;3.07;;;5.90;99.90;;;;;;6215816;23;20164;-41
2022/09/29 01:07:23;;;;;;;7.83;3.10;;;5.90;99.90;;;;;;6215736;23;20210;-42
2022/09/29 01:09:52;;;;;;;2.97;2.67;;;5.90;99.90;;;;;;6215693;23;20266;-40
2022/09/29 01:12:18;;;;;;;5.20;3.17;;;5.80;99.90;;;;;;6216273;23;20156;-42
2022/09/29 01:14:45;;;;;;;3.10;2.77;;;5.90;99.90;;;;;;6217446;23;20269;-40
2022/09/29 01:17:11;;;;;;;4.13;3.10;;;5.80;99.90;;;;;;6215703;23;20204;-38
2022/09/29 01:20:06;;;;;;;4.40;2.87;;;5.80;99.90;;;;;;6215729;23;20170;-41
2022/09/29 01:22:53;;;;;;;4.67;3.20;;;5.80;99.90;;;;;;6206952;23;20168;-41
2022/09/29 01:25:56;;;;;;;3.50;3.20;;;5.70;99.90;;;;;;6217156;23;20156;-40
2022/09/29 01:28:33;;;;;;;5.17;3.50;;;5.70;99.90;;;;;;6217100;23;20186;-42
2022/09/29 01:31:11;;;;;;;3.97;3.40;;;5.70;99.90;;;;;;6217514;23;20155;-42
2022/09/29 01:33:55;;;;;;;7.67;4.30;;;5.60;99.90;;;;;;6217413;23;20139;-41
2022/09/29 01:36:40;;;;;;;5.67;5.17;;;5.60;99.90;;;;;;6217362;23;20178;-37
2022/09/29 01:39:13;;;;;;;4.57;4.17;;;5.60;99.90;;;;;;6217420;23;20148;-41
2022/09/29 01:41:51;;;;;;;4.10;3.50;;;5.50;99.90;;;;;;6217405;23;20146;-38
2022/09/29 01:44:47;;;;;;;6.80;3.80;;;5.50;99.90;;;;;;6216071;23;20148;-40
2022/09/29 01:47:19;;;;;;;3.73;3.07;;;5.50;99.90;;;;;;6215461;23;20232;-37
2022/09/29 01:49:49;;;;;;;9.57;3.00;;;5.40;99.90;;;;;;6215262;23;20183;-39
2022/09/29 01:52:20;;;;;;;3.57;3.27;;;5.40;99.90;;;;;;6217392;23;20571;-39
2022/09/29 01:55:06;;;;;;;3.60;3.30;;;5.40;99.90;;;;;;6215769;23;20599;-39
2022/09/29 01:57:49;;;;;;;4.90;3.30;;;5.30;99.90;;;;;;6216749;23;20202;-38
2022/09/29 02:00:17;;;;;;;3.37;2.87;;;5.30;99.90;;;;;;6217288;23;20213;-39
2022/09/29 02:03:10;;;;;;;3.87;3.03;;;5.30;99.90;;;;;;6217216;23;20179;-41
2022/09/29 02:06:00;;;;;;;4.57;3.47;;;5.20;99.90;;;;;;6216856;23;20222;-40
2022/09/29 02:08:36;;;;;;;4.77;3.30;;;5.20;99.90;;;;;;6216830;23;20176;-40
2022/09/29 02:11:07;;;;;;;4.33;3.40;;;5.10;99.90;;;;;;6217112;23;20147;-37
2022/09/29 02:13:57;;;;;;;4.53;4.00;;;5.10;99.90;;;;;;6217024;23;20525;-37
2022/09/29 02:16:27;;;;;;;4.30;3.73;;;5.10;99.90;;;;;;6216582;23;20178;-38
2022/09/29 02:19:01;;;;;;;4.10;3.60;;;5.10;99.90;;;;;;6216758;23;20258;-39
2022/09/29 02:21:27;;;;;;;6.50;3.50;;;5.00;99.90;;;;;;6216772;23;20147;-38
2022/09/29 02:23:53;;;;;;;3.50;3.20;;;5.00;99.90;;;;;;6216981;23;20620;-38
2022/09/29 02:26:19;;;;;;;4.10;3.60;;;5.00;99.90;;;;;;6216572;23;20173;-40
2022/09/29 02:28:46;;;;;;;5.70;3.50;;;5.00;99.90;;;;;;6216838;23;20182;-42
2022/09/29 02:31:13;;;;;;;4.93;3.67;;;4.90;99.90;;;;;;6215878;23;20191;-38
2022/09/29 02:33:38;;;;;;;4.57;3.60;;;4.90;99.90;;;;;;6216646;23;20185;-38
2022/09/29 02:36:16;;;;;;;4.33;3.37;;;4.90;99.90;;;;;;6216528;23;20151;-41
2022/09/29 02:38:50;;;;;;;6.27;3.87;;;4.80;99.90;;;;;;6214840;23;20162;-37
2022/09/29 02:41:24;;;;;;;4.33;3.80;;;4.80;99.90;;;;;;6216889;23;20153;-41
2022/09/29 02:44:16;;;;;;;5.30;3.90;;;4.80;99.90;;;;;;6216398;23;20156;-40
2022/09/29 02:47:08;;;;;;;4.07;3.67;;;4.70;99.90;;;;;;6214767;23;20213;-38
2022/09/29 02:49:33;;;;;;;4.37;3.53;;;4.70;99.90;;;;;;6216809;23;20544;-39
2022/09/29 02:52:19;;;;;;;4.90;4.10;;;4.70;99.90;;;;;;6214880;23;20157;-40
2022/09/29 02:54:48;;;;;;;4.10;3.70;;;4.70;99.90;;;;;;6214870;23;20170;-38
2022/09/29 02:57:27;;;;;;;5.57;3.80;;;4.60;99.90;;;;;;6214728;23;20191;-41
2022/09/29 03:00:16;;;;;;;4.20;3.80;;;4.60;99.90;;;;;;6214754;23;20158;-42
2022/09/29 03:02:43;;;;;;;4.73;3.33;;;4.60;99.90;;;;;;6191087;23;20166;-39
2022/09/29 03:05:12;;;;;;;5.37;3.80;;;4.60;99.90;;;;;;6214706;23;20222;-37
2022/09/29 03:07:39;;;;;;;4.17;3.70;;;4.60;99.90;;;;;;6214752;23;20186;-39
2022/09/29 03:10:06;;;;;;;4.47;4.00;;;4.60;99.90;;;;;;6214826;23;20211;-39
2022/09/29 03:12:33;;;;;;;4.77;3.70;;;4.50;99.90;;;;;;6214358;23;20157;-40
2022/09/29 03:14:59;;;;;;;4.77;4.27;;;4.50;99.90;;;;;;6214705;23;20188;-40
2022/09/29 03:17:26;;;;;;;5.10;4.07;;;4.50;99.90;;;;;;6216551;23;20203;-41
2022/09/29 03:19:53;;;;;;;6.57;4.47;;;4.50;99.90;;;;;;6214507;23;20302;-39
2022/09/29 03:22:19;;;;;;;6.07;4.20;;;4.50;99.90;;;;;;6214657;23;20599;-40
2022/09/29 03:24:46;;;;;;;4.17;3.77;;;4.50;99.90;;;;;;6214563;23;20164;-40
2022/09/29 03:27:12;;;;;;;4.33;3.60;;;4.50;99.90;;;;;;6214377;23;20186;-40
2022/09/29 03:29:38;;;;;;;6.03;4.03;;;4.50;99.90;;;;;;6214611;23;20215;-40
2022/09/29 03:32:07;;;;;;;4.60;4.17;;;4.50;99.90;;;;;;6214660;23;20166;-40
2022/09/29 03:34:34;;;;;;;5.50;4.47;;;4.50;99.90;;;;;;6214540;23;20239;-40
2022/09/29 03:37:00;;;;;;;6.97;4.40;;;4.40;99.90;;;;;;6215116;23;20176;-40
2022/09/29 03:39:27;;;;;;;7.30;4.27;;;4.40;99.90;;;;;;6189501;23;20160;-39
2022/09/29 03:41:54;;;;;;;4.97;4.10;;;4.40;99.90;;;;;;6214410;23;20250;-39
2022/09/29 03:44:20;;;;;;;6.27;4.43;;;4.40;99.90;;;;;;6214189;23;20164;-39
2022/09/29 03:46:46;;;;;;;6.17;4.47;;;4.40;99.90;;;;;;6214222;23;20206;-38
2022/09/29 03:49:14;;;;;;;5.27;4.77;;;4.40;99.90;;;;;;6214458;23;20176;-39
2022/09/29 03:51:41;;;;;;;5.17;4.30;;;4.30;99.90;;;;;;6214376;23;20163;-39
2022/09/29 03:54:09;;;;;;;5.10;4.33;;;4.30;99.90;;;;;;6214180;23;20156;-38
2022/09/29 03:56:36;;;;;;;5.40;4.20;;;4.30;99.90;;;;;;6215590;23;20196;-39
2022/09/29 03:59:04;;;;;;;9.00;4.73;;;4.30;99.90;;;;;;6214816;23;20165;-42
2022/09/29 04:01:30;;;;;;;7.23;4.17;;;4.30;99.90;;;;;;6216096;23;20180;-42
2022/09/29 04:03:57;;;;;;;4.97;4.33;;;4.20;99.90;;;;;;6215702;23;20156;-43
2022/09/29 04:06:22;;;;;;;4.93;4.43;;;4.20;99.90;;;;;;6214029;23;20206;-42
2022/09/29 04:08:48;;;;;;;7.03;4.40;;;4.20;99.90;;;;;;6216071;23;20622;-44
2022/09/29 04:11:14;;;;;;;5.27;4.23;;;4.20;99.90;;;;;;6214162;23;20587;-44
2022/09/29 04:13:39;;;;;;;7.13;4.80;;;4.10;99.90;;;;;;6215618;23;20283;-42
2022/09/29 04:16:05;;;;;;;4.93;4.40;;;4.10;99.90;;;;;;6214149;23;20180;-43
2022/09/29 04:18:31;;;;;;;8.37;4.60;;;4.10;99.90;;;;;;6215583;23;20160;-44
2022/09/29 04:20:59;;;;;;;7.07;4.70;;;4.00;99.90;;;;;;6215656;23;20520;-41
2022/09/29 04:23:29;;;;;;;4.97;4.23;;;4.00;99.90;;;;;;6215508;23;20164;-42
2022/09/29 04:25:55;;;;;;;5.63;4.43;;;4.00;99.90;;;;;;6215805;23;20164;-42
2022/09/29 04:28:21;;;;;;;6.17;4.80;;;3.90;99.90;;;;;;6215431;23;20198;-44
2022/09/29 04:30:47;;;;;;;6.23;4.97;;;3.90;99.90;;;;;;6214069;23;20164;-42
2022/09/29 04:33:13;;;;;;;8.23;4.70;;;3.90;99.90;;;;;;6215886;23;20156;-42
2022/09/29 04:35:38;;;;;;;7.00;4.37;;;3.90;99.90;;;;;;6215578;23;20166;-43
2022/09/29 04:38:04;;;;;;;6.63;4.43;;;3.90;99.90;;;;;;6215428;23;20176;-42
2022/09/29 04:40:30;;;;;;;5.50;4.27;;;3.80;99.90;;;;;;6214200;23;20226;-41
2022/09/29 04:42:55;;;;;;;6.87;4.50;;;3.80;99.90;;;;;;6215660;23;20190;-43
2022/09/29 04:45:21;;;;;;;5.30;4.33;;;3.80;99.90;;;;;;6215620;23;20159;-43
2022/09/29 04:47:46;;;;;;;7.00;4.87;;;3.80;99.90;;;;;;6213850;23;20597;-43
2022/09/29 04:50:12;;;;;;;7.03;4.90;;;3.80;99.90;;;;;;6213955;23;20179;-43
2022/09/29 04:52:41;;;;;;;4.80;3.93;;;3.80;99.90;;;;;;6215777;23;20206;-43
2022/09/29 04:55:10;;;;;;;6.53;4.40;;;3.80;99.90;;;;;;6213639;23;20175;-43
2022/09/29 04:57:36;;;;;;;6.80;4.57;;;3.70;99.90;;;;;;6215769;23;20203;-43
2022/09/29 05:00:04;;;;;;;4.97;4.50;;;3.70;99.90;;;;;;6214497;23;20219;-41
2022/09/29 05:02:29;;;;;;;4.70;4.23;;;3.70;99.90;;;;;;6214604;23;20473;-41
2022/09/29 05:04:55;;;;;;;6.43;5.07;;;3.70;99.90;;;;;;6215539;23;20230;-41
2022/09/29 05:07:20;;;;;;;5.67;4.77;;;3.70;99.90;;;;;;6188853;23;20239;-44
2022/09/29 05:09:46;;;;;;;9.20;5.23;;;3.70;99.90;;;;;;6213670;23;20172;-42
2022/09/29 05:12:12;;;;;;;7.00;4.87;;;3.70;99.90;;;;;;6215709;23;20153;-41
2022/09/29 05:14:38;;;;;;;6.90;5.03;;;3.70;99.90;;;;;;6215830;23;20237;-44
2022/09/29 05:17:03;;;;;;;6.73;5.33;;;3.70;99.90;;;;;;6215289;23;20222;-42
2022/09/29 05:19:30;;;;;;;8.87;5.27;;;3.70;99.90;;;;;;6215423;23;20207;-43
2022/09/29 05:21:57;;;;;;;5.67;5.17;;;3.70;99.90;;;;;;6213866;23;20264;-43
2022/09/29 05:24:24;;;;;;;7.67;5.50;;;3.70;99.90;;;;;;6213720;23;20187;-41
2022/09/29 05:26:49;;;;;;;6.40;5.33;;;3.70;99.90;;;;;;6213801;23;20180;-43
2022/09/29 05:29:15;;;;;;;6.27;5.37;;;3.70;99.90;;;;;;6215289;23;20184;-43
2022/09/29 05:31:41;;;;;;;7.97;5.93;;;3.70;99.90;;;;;;6215385;23;20240;-43
2022/09/29 05:34:07;;;;;;;9.70;5.87;;;3.70;99.90;;;;;;6215690;23;20570;-43
2022/09/29 05:36:32;;;;;;;12.17;5.47;;;3.70;99.90;;;;;;6217097;23;20168;-41
2022/09/29 05:38:58;;;;;;;9.47;6.00;;;3.70;99.90;;;;;;6215617;23;20637;-42
2022/09/29 05:41:24;;;;;;;9.13;5.80;;;3.70;99.90;;;;;;6217382;23;20183;-43
2022/09/29 05:43:52;;;;;;;7.03;5.33;;;3.70;99.90;;;;;;6215570;23;20172;-41
2022/09/29 05:46:18;;;;;;;8.57;5.63;;;3.80;99.90;;;;;;6217491;23;20176;-41
2022/09/29 05:48:48;;;;;;;9.00;5.87;;;3.70;99.90;;;;;;6216981;23;20176;-44
2022/09/29 05:51:16;;;;;;;6.47;5.40;;;3.80;99.90;;;;;;6216969;23;20153;-42
2022/09/29 05:53:42;;;;;;;7.23;5.77;;;3.80;99.90;;;;;;6217433;23;20160;-42
2022/09/29 05:56:10;;;;;;;8.67;6.40;;;3.70;99.90;;;;;;6215409;23;20199;-42
2022/09/29 05:58:37;;;;;;;5.93;5.33;;;3.70;99.90;;;;;;6216934;23;20159;-41
2022/09/29 06:01:07;;;;;;;7.60;5.13;;;3.70;99.90;;;;;;6218688;23;20167;-44
2022/09/29 06:03:36;;;;;;;6.17;5.30;;;3.70;99.90;;;;;;6220891;23;20179;-42
2022/09/29 06:06:10;;;;;;;6.30;5.10;;;3.70;99.90;;;;;;6220710;23;20156;-43
2022/09/29 06:08:44;;;;;;;7.00;4.60;;;3.70;99.90;;;;;;6220531;23;20168;-41
2022/09/29 06:11:13;;;;;;;6.67;5.10;;;3.70;99.90;;;;;;6220419;23;20159;-41
2022/09/29 06:13:40;;;;;;;7.63;5.17;;;3.70;99.90;;;;;;6220680;23;20462;-42
2022/09/29 06:16:06;;;;;;;6.53;5.50;;;3.70;99.90;;;;;;6219651;23;20186;-41
2022/09/29 06:18:32;;;;;;;9.73;5.30;;;3.70;99.90;;;;;;6219979;23;20590;-41
2022/09/29 06:21:05;;;;;;;7.73;5.40;;;3.70;99.90;;;;;;6221860;23;20187;-42
2022/09/29 06:23:31;;;;;;;8.20;5.10;;;3.70;99.90;;;;;;6219906;23;20236;-42
2022/09/29 06:25:58;;;;;;;9.23;5.20;;;3.80;99.90;;;;;;6217770;23;20507;-41
2022/09/29 06:28:24;;;;;;;14.77;5.50;;;3.80;99.90;;;;;;6219157;23;20187;-44
2022/09/29 06:31:32;;;;;;;13.30;5.40;;;3.80;99.90;;;;;;6220991;23;20148;-42
2022/09/29 06:34:02;;;;;;;13.57;6.10;;;3.90;99.90;;;;;;6214745;23;20160;-41
2022/09/29 06:39:33;;;;;;;8.60;5.37;;;4.00;99.90;;;;;;6220965;23;20147;-42
2022/09/29 06:41:59;;;;;;;8.33;6.00;;;4.10;99.90;;;;;;6221807;23;20152;-42
2022/09/29 06:44:27;;;;;;;11.43;6.50;;;4.20;99.90;;;;;;6219465;23;20450;-43
2022/09/29 06:46:55;;;;;;;15.13;6.20;;;4.30;99.90;;;;;;6218881;23;20203;-39
2022/09/29 06:49:22;;;;;;;11.33;6.03;;;4.50;99.90;;;;;;6216488;23;20192;-39
2022/09/29 06:51:49;;;;;;;9.10;6.07;;;4.60;99.90;;;;;;6215025;23;20602;-38
2022/09/29 06:54:19;;;;;;;10.77;7.03;;;4.70;99.90;;;;;;6214861;23;20174;-37
2022/09/29 06:56:49;;;;;;;13.23;6.23;;;4.80;99.90;;;;;;6216084;23;20221;-38
2022/09/29 06:59:16;;;;;;;14.97;5.20;;;4.90;99.90;;;;;;6215001;23;20168;-38
2022/09/29 07:01:41;;;;;;;8.37;5.90;;;5.00;99.90;;;;;;6216366;23;20172;-41
2022/09/29 07:04:40;;;;;;;10.40;5.80;;;5.20;99.90;;;;;;6215764;23;20164;-37
2022/09/29 07:07:07;;;;;;;8.40;5.40;;;5.30;99.90;;;;;;6218379;23;20180;-43
2022/09/29 07:09:32;;;;;;;14.10;6.40;;;5.40;99.90;;;;;;6221891;23;20182;-43
2022/09/29 07:11:58;;;;;;;7.70;6.03;;;5.50;99.90;;;;;;6221690;23;20152;-44
2022/09/29 07:14:24;;;;;;;14.87;6.43;;;5.60;99.90;;;;;;6220511;23;20156;-41
2022/09/29 07:16:50;;;;;;;11.13;6.53;;;5.70;99.90;;;;;;6222253;23;20175;-44
2022/09/29 07:19:18;;;;;;;9.30;7.17;;;5.70;99.90;;;;;;6221903;23;20171;-43
2022/09/29 07:25:07;;;;;;;11.03;6.43;;;5.90;99.90;;;;;;6221804;23;20624;-44
2022/09/29 07:27:34;;;;;;;15.00;7.47;;;6.00;99.90;;;;;;6221961;23;20191;-43
2022/09/29 07:30:00;;;;;;;12.13;8.13;;;6.10;99.90;;;;;;6220638;23;20287;-41
2022/09/29 07:32:31;;;;;;;16.73;8.17;;;6.20;99.90;;;;;;6221747;23;20201;-45
2022/09/29 07:35:10;;;;;;;16.53;9.33;;;6.30;99.90;;;;;;6220725;23;20148;-44
2022/09/29 07:38:17;;;;;;;12.80;8.63;;;6.40;99.90;;;;;;6168463;23;20179;-41
2022/09/29 07:44:17;;;;;;;21.30;10.90;;;6.70;99.90;;;;;;6216127;23;20549;-41
2022/09/29 07:46:46;;;;;;;17.77;8.83;;;6.90;99.90;;;;;;6214488;23;20182;-40
2022/09/29 07:49:15;;;;;;;17.47;8.97;;;7.00;99.90;;;;;;6215800;23;20184;-37
2022/09/29 07:51:41;;;;;;;13.83;10.20;;;7.20;99.90;;;;;;6215950;23;20156;-38
2022/09/29 07:54:07;;;;;;;14.50;9.07;;;7.30;99.90;;;;;;6216025;23;20214;-37
2022/09/29 07:56:44;;;;;;;17.03;10.17;;;7.40;99.90;;;;;;6214182;23;20194;-37
2022/09/29 07:59:12;;;;;;;17.43;11.30;;;7.60;99.90;;;;;;6214573;23;20210;-37
2022/09/29 08:01:38;;;;;;;21.33;12.53;;;7.70;99.90;;;;;;6214480;23;20211;-38
2022/09/29 08:04:05;;;;;;;20.53;12.73;;;7.90;99.90;;;;;;6216470;23;20164;-37
2022/09/29 08:06:31;;;;;;;21.17;11.73;;;7.90;99.90;;;;;;6214177;23;20570;-38
2022/09/29 08:09:01;;;;;;;17.67;11.80;;;8.00;99.90;;;;;;6214030;23;20196;-39
2022/09/29 08:11:27;;;;;;;21.83;12.37;;;8.20;99.90;;;;;;6214301;23;20173;-41
2022/09/29 08:13:53;;;;;;;24.30;13.10;;;8.30;99.90;;;;;;6216225;23;20150;-39
2022/09/29 08:16:22;;;;;;;21.93;14.63;;;8.40;99.90;;;;;;6215567;23;20174;-42
2022/09/29 08:18:49;;;;;;;28.37;15.87;;;8.40;99.90;;;;;;6189274;23;20157;-38
2022/09/29 08:21:17;;;;;;;26.97;16.97;;;8.60;99.90;;;;;;6214152;23;20523;-39
2022/09/29 08:23:47;;;;;;;25.73;16.43;;;8.60;99.90;;;;;;6214775;23;20153;-38
2022/09/29 08:26:16;;;;;;;32.07;17.63;;;8.70;99.90;;;;;;6215647;23;20189;-39
2022/09/29 08:28:44;;;;;;;27.13;17.60;;;8.80;99.90;;;;;;6213903;23;20513;-37
2022/09/29 08:31:21;;;;;;;28.40;16.80;;;8.90;99.90;;;;;;6214074;23;20569;-41
2022/09/29 08:33:51;;;;;;;26.47;16.80;;;8.90;99.90;;;;;;6216149;23;20573;-41
2022/09/29 08:36:20;;;;;;;27.73;17.10;;;9.00;99.90;;;;;;6213884;23;20181;-37
2022/09/29 08:38:50;;;;;;;30.80;17.00;;;9.10;99.90;;;;;;6211807;23;20607;-40
2022/09/29 08:41:27;;;;;;;25.17;15.00;;;9.20;99.90;;;;;;6215676;23;20154;-37
2022/09/29 08:44:04;;;;;;;33.43;16.10;;;9.30;99.90;;;;;;6216202;23;20232;-37
2022/09/29 08:46:41;;;;;;;25.90;16.97;;;9.40;99.90;;;;;;6214140;23;20251;-38
2022/09/29 08:49:40;;;;;;;28.73;16.70;;;9.50;99.90;;;;;;6215601;23;20622;-41
2022/09/29 08:52:13;;;;;;;25.77;15.63;;;9.70;99.90;;;;;;6191586;23;20496;-39
2022/09/29 08:54:42;;;;;;;20.63;14.43;;;9.90;99.90;;;;;;6215851;23;20164;-37
2022/09/29 08:57:17;;;;;;;24.53;15.77;;;10.00;99.90;;;;;;6215825;23;20176;-40
2022/09/29 08:59:52;;;;;;;19.50;14.03;;;10.10;99.90;;;;;;6215509;23;20144;-39
2022/09/29 09:02:46;;;;;;;23.30;13.00;;;10.30;99.90;;;;;;6215686;23;20173;-39
2022/09/29 09:05:35;;;;;;;19.67;13.67;;;10.40;99.90;;;;;;6214277;23;20219;-40
2022/09/29 09:08:05;;;;;;;21.20;12.00;;;10.60;99.90;;;;;;6215784;23;20698;-41
2022/09/29 09:10:53;;;;;;;19.33;11.60;;;10.70;99.90;;;;;;6216953;23;20150;-39
2022/09/29 09:13:35;;;;;;;18.10;10.33;;;10.80;99.90;;;;;;6217687;23;20164;-37
2022/09/29 09:16:07;;;;;;;15.50;10.77;;;10.90;99.90;;;;;;6218272;23;20194;-41
2022/09/29 09:18:54;;;;;;;16.80;11.00;;;11.00;99.90;;;;;;6217255;23;20578;-40
2022/09/29 09:21:30;;;;;;;15.53;10.63;;;11.10;99.90;;;;;;6217693;23;20148;-40
2022/09/29 09:24:01;;;;;;;14.70;9.43;;;11.20;99.90;;;;;;6217235;23;20180;-40
2022/09/29 09:26:36;;;;;;;11.93;8.30;;;11.40;99.90;;;;;;6217471;23;20181;-40
2022/09/29 09:29:09;;;;;;;14.33;8.07;;;11.50;99.90;;;;;;6217225;23;20485;-40
2022/09/29 09:31:42;;;;;;;10.70;7.10;;;11.60;99.90;;;;;;6217715;23;20148;-39
2022/09/29 09:34:33;;;;;;;11.20;7.03;;;11.70;99.90;;;;;;6217538;23;20464;-41
2022/09/29 09:37:10;;;;;;;8.73;6.47;;;11.80;99.90;;;;;;6217056;23;20175;-39
2022/09/29 09:39:46;;;;;;;9.83;6.43;;;12.00;99.90;;;;;;6217637;23;20510;-40
2022/09/29 09:42:20;;;;;;;9.40;6.57;;;12.10;99.90;;;;;;6217380;23;20151;-42
2022/09/29 09:44:54;;;;;;;7.83;6.00;;;12.30;99.90;;;;;;6217275;23;20172;-41
2022/09/29 09:47:26;;;;;;;10.47;6.53;;;12.40;99.90;;;;;;6217263;23;20202;-40
2022/09/29 09:50:15;;;;;;;11.10;6.63;;;12.60;99.90;;;;;;6216954;23;20214;-41
2022/09/29 09:52:50;;;;;;;10.13;6.13;;;12.60;99.90;;;;;;6216242;23;20164;-42
2022/09/29 09:55:19;;;;;;;7.67;5.93;;;12.70;99.90;;;;;;6217499;23;20601;-38
2022/09/29 09:57:51;;;;;;;9.63;5.80;;;12.80;99.90;;;;;;6217276;23;20172;-41
2022/09/29 10:00:25;;;;;;;8.33;6.13;;;13.00;99.90;;;;;;6216950;23;20160;-39
2022/09/29 10:02:54;;;;;;;6.37;5.10;;;13.10;99.90;;;;;;6217156;23;20148;-37
2022/09/29 10:05:25;;;;;;;10.10;5.60;;;13.10;99.90;;;;;;6217318;23;20152;-40
2022/09/29 10:07:52;;;;;;;9.57;5.77;;;13.20;99.90;;;;;;6217312;23;20354;-39
2022/09/29 10:10:21;;;;;;;8.37;5.80;;;13.30;99.90;;;;;;6217241;23;20354;-39
2022/09/29 10:12:54;;;;;;;7.17;6.07;;;13.40;99.90;;;;;;6216904;23;20152;-40
2022/09/29 10:15:37;;;;;;;9.80;6.20;;;13.50;99.90;;;;;;6217461;23;20148;-38
2022/09/29 10:18:15;;;;;;;9.57;6.93;;;13.50;99.90;;;;;;6217274;23;20262;-39
2022/09/29 10:20:41;;;;;;;8.20;6.77;;;13.60;99.90;;;;;;6216209;23;20149;-40
2022/09/29 10:23:31;;;;;;;10.50;7.13;;;13.70;99.90;;;;;;6217288;23;20228;-41
2022/09/29 10:26:24;;;;;;;10.10;6.03;;;13.80;99.90;;;;;;6216802;23;20141;-38
2022/09/29 10:28:52;;;;;;;8.87;6.57;;;13.90;99.90;;;;;;6217152;23;20172;-41
2022/09/29 10:31:27;;;;;;;10.17;6.83;;;14.00;99.90;;;;;;6217313;23;20228;-39
2022/09/29 10:33:59;;;;;;;8.63;5.90;;;14.10;99.90;;;;;;6217226;23;20229;-40
2022/09/29 10:36:27;;;;;;;7.70;5.90;;;14.20;99.90;;;;;;6216551;23;20689;-41
2022/09/29 10:38:53;;;;;;;9.47;6.10;;;14.30;99.90;;;;;;6216922;23;20159;-37
2022/09/29 10:41:19;;;;;;;8.97;6.30;;;14.30;99.90;;;;;;6216874;23;20165;-40
2022/09/29 10:43:47;;;;;;;9.73;5.97;;;14.30;99.90;;;;;;6216535;23;20486;-40
2022/09/29 10:46:31;;;;;;;9.60;5.90;;;14.40;99.90;;;;;;6216484;23;20687;-42
2022/09/29 10:49:17;;;;;;;8.13;5.83;;;14.60;99.90;;;;;;6216778;23;20187;-42
2022/09/29 10:51:52;;;;;;;7.53;5.60;;;14.70;99.90;;;;;;6216883;23;20157;-38
2022/09/29 10:54:18;;;;;;;6.73;5.67;;;14.80;99.90;;;;;;6216798;23;20155;-38
2022/09/29 10:56:47;;;;;;;8.37;5.70;;;14.90;99.90;;;;;;6216271;23;20188;-37
2022/09/29 10:59:14;;;;;;;6.33;5.20;;;15.00;99.90;;;;;;6216756;23;20586;-38
2022/09/29 11:01:59;;;;;;;8.23;5.87;;;15.00;99.90;;;;;;6216309;23;20167;-40
2022/09/29 11:04:29;;;;;;;4.60;3.57;;;15.20;99.90;;;;;;6216507;23;20571;-40
2022/09/29 11:06:56;;;;;;;5.10;3.40;;;15.40;99.90;;;;;;6216387;23;20176;-40
2022/09/29 11:09:21;;;;;;;5.13;3.50;;;15.50;99.90;;;;;;6216525;23;20188;-43
2022/09/29 11:11:47;;;;;;;4.37;2.87;;;15.70;99.90;;;;;;6216333;23;20651;-39
2022/09/29 11:14:40;;;;;;;5.97;3.10;;;15.90;99.90;;;;;;6216317;23;20164;-39
2022/09/29 11:17:26;;;;;;;4.57;3.37;;;16.10;99.90;;;;;;6215138;23;20200;-41
2022/09/29 11:19:54;;;;;;;5.57;3.57;;;16.20;99.90;;;;;;6216545;23;20263;-41
2022/09/29 11:22:31;;;;;;;5.33;4.00;;;16.30;99.90;;;;;;6216419;23;20163;-42
2022/09/29 11:25:34;;;;;;;3.73;3.13;;;16.20;99.90;;;;;;6216460;23;20140;-43
2022/09/29 11:28:24;;;;;;;3.73;2.97;;;16.30;99.90;;;;;;6214390;23;20626;-39
2022/09/29 11:31:16;;;;;;;3.90;2.70;;;16.40;99.90;;;;;;6216782;23;20153;-39
2022/09/29 11:34:09;;;;;;;7.17;3.37;;;16.70;99.90;;;;;;6216260;23;20183;-42
2022/09/29 11:36:48;;;;;;;4.17;2.97;;;16.80;99.90;;;;;;6216322;23;20183;-42
2022/09/29 11:39:24;;;;;;;4.60;3.27;;;16.90;99.90;;;;;;6216651;23;20140;-42
2022/09/29 11:42:16;;;;;;;7.73;2.97;;;16.90;99.90;;;;;;6216295;23;20136;-40
2022/09/29 11:44:59;;;;;;;5.77;3.60;;;17.10;99.90;;;;;;6216364;23;20145;-41
2022/09/29 11:48:07;;;;;;;8.07;3.13;;;17.40;99.90;;;;;;6216108;23;20206;-40
2022/09/29 11:51:04;;;;;;;4.77;3.27;;;17.50;99.90;;;;;;6216114;23;20164;-42
2022/09/29 11:53:50;;;;;;;4.77;3.30;;;17.70;99.90;;;;;;6216530;23;20149;-41
2022/09/29 11:56:21;;;;;;;2.93;2.60;;;17.80;99.90;;;;;;6215823;23;20223;-43
2022/09/29 11:59:05;;;;;;;5.07;2.57;;;18.00;99.90;;;;;;6216276;23;20176;-39
2022/09/29 12:01:56;;;;;;;2.13;1.60;;;18.20;99.90;;;;;;6216113;23;20160;-41
2022/09/29 12:04:44;;;;;;;3.73;1.60;;;18.40;99.90;;;;;;6214436;23;20191;-37
2022/09/29 12:07:16;;;;;;;5.20;1.73;;;18.40;99.90;;;;;;6216107;23;20172;-41
2022/09/29 12:10:07;;;;;;;4.03;1.40;;;18.40;99.90;;;;;;6215851;23;20168;-40
2022/09/29 12:13:02;;;;;;;2.30;1.67;;;18.40;99.90;;;;;;6216632;23;20133;-41
2022/09/29 12:15:49;;;;;;;2.13;1.47;;;18.40;99.90;;;;;;6208183;23;20442;-43
2022/09/29 12:18:28;;;;;;;5.70;1.67;;;18.50;99.90;;;;;;6215975;23;20216;-39
2022/09/29 12:20:55;;;;;;;2.47;1.57;;;18.60;99.90;;;;;;6216164;23;20144;-42
2022/09/29 12:23:24;;;;;;;3.53;1.47;;;18.60;99.90;;;;;;6216325;23;20526;-39
2022/09/29 12:25:58;;;;;;;3.27;1.40;;;18.70;99.90;;;;;;6216575;23;20235;-41
2022/09/29 12:28:29;;;;;;;2.03;1.40;;;18.70;99.90;;;;;;6216621;23;20164;-42
2022/09/29 12:31:20;;;;;;;5.40;1.60;;;18.70;99.90;;;;;;6217081;23;20206;-40
2022/09/29 12:33:52;;;;;;;2.43;1.50;;;18.60;99.90;;;;;;6215950;23;20179;-39
2022/09/29 12:36:52;;;;;;;2.97;1.30;;;18.60;99.90;;;;;;6215940;23;20168;-41
2022/09/29 12:39:33;;;;;;;2.53;1.20;;;18.70;99.90;;;;;;6216315;23;20203;-37
2022/09/29 12:42:21;;;;;;;1.33;1.23;;;18.70;99.90;;;;;;6214499;23;20148;-44
2022/09/29 12:44:53;;;;;;;2.73;1.13;;;18.70;99.90;;;;;;6214047;23;20239;-46
2022/09/29 12:47:27;;;;;;;1.97;1.27;;;18.70;99.90;;;;;;6215836;23;20176;-43
2022/09/29 12:50:10;;;;;;;4.40;1.50;;;18.70;99.90;;;;;;6215831;23;20187;-46
2022/09/29 12:52:54;;;;;;;2.93;1.10;;;18.60;99.90;;;;;;6215669;23;20152;-44
2022/09/29 12:55:30;;;;;;;1.53;0.90;;;18.70;99.90;;;;;;6215521;23;20677;-45
2022/09/29 12:57:59;;;;;;;1.60;1.07;;;18.60;99.90;;;;;;6216152;23;20175;-46
2022/09/29 13:00:31;;;;;;;2.30;0.90;;;18.60;99.90;;;;;;6215757;23;20160;-46
2022/09/29 13:03:41;;;;;;;2.30;1.00;;;18.50;99.90;;;;;;6215960;23;20144;-46
2022/09/29 13:06:38;;;;;;;3.10;1.70;;;18.50;99.90;;;;;;6215964;23;20179;-44
2022/09/29 13:09:47;;;;;;;1.90;1.10;;;18.40;99.90;;;;;;6215874;23;20188;-47
2022/09/29 13:12:41;;;;;;;2.33;1.10;;;18.40;99.90;;;;;;6191701;23;20184;-44
2022/09/29 13:15:35;;;;;;;1.67;1.10;;;18.40;99.90;;;;;;6216397;23;20222;-43
2022/09/29 13:18:38;;;;;;;2.57;1.27;;;18.40;99.90;;;;;;6215978;23;20184;-45
2022/09/29 13:21:18;;;;;;;2.57;1.37;;;18.40;99.90;;;;;;6215869;23;20489;-44
2022/09/29 13:24:07;;;;;;;1.63;1.00;;;18.40;99.90;;;;;;6215997;23;20164;-45
2022/09/29 13:26:41;;;;;;;3.73;1.27;;;18.40;99.90;;;;;;6216014;23;20180;-43
2022/09/29 13:29:15;;;;;;;3.33;1.03;;;18.40;99.90;;;;;;6215839;23;20183;-45
2022/09/29 13:31:42;;;;;;;3.47;1.47;;;18.40;99.90;;;;;;6215982;23;20140;-43
2022/09/29 13:34:21;;;;;;;4.03;1.33;;;18.40;99.90;;;;;;6216197;23;20206;-44